Hoppa till innehåll

METAR väder och rapporter - ESGG

Nedan listas information från vald flygplats. Andra METARs finns längre ned på sidan. Kontakta oss om någon saknas eller skriv in egen ICAO-kod.

Andra intressanta METARs

Klicka på önskad rubrik nedan för att visa nuvarande väder för den platsen.

Avstånd från stationen: NO 27kmESGG - Göteborg (Landvetter)
Uppdaterad: 2017-06-26 15:50
 Vind från V
Vind: V 28 km/h
Vindby: 46 km/h
Temperatur: 15°C
Daggpunkt: 8°C
Luftfuktighet: 63%
Barometer: 1002 hPa
Moln: Övervägande molnigt
Sikt: 10 km
Molninformation: Övervägande molnigt 975 m
2017/06/26 13:50 ESGG 261350Z 27015G25KT 9999 BKN032 15/08 Q1002
Övervägande molnigt
Övervägande molnigt
  Visa detaljer för Göteborg (Landvetter)
Avstånd från stationen: N 28kmESGP - Göteborg (Säve)
Uppdaterad: 2017-01-02 11:20
Ej aktuell
 Vind från calm
Vind: Vindstilla
Temperatur: -2°C
Daggpunkt: -4°C
Luftfuktighet: 86%
Barometer: 1012 hPa
Moln: Klart
Sikt: 10 km
2017/01/02 10:20 ESGP 021020Z AUTO 00000KT 9999 NCD M02/M04 Q1012
Klart
Klart
  Visa detaljer för Göteborg (Säve)
Avstånd från stationen: NO 419kmESSA - Stockholm (Arlanda)
Uppdaterad: 2017-06-26 15:50
 Vind från V
Vind: V 19 km/h
Temperatur: 13°C
Daggpunkt: 11°C
Luftfuktighet: 88%
Barometer: 993 hPa
Summering: Skurar i närheten
Moln: Delvis molnigt
Sikt: 10 km
Molninformation: Några få moln 884 m
Delvis molnigt 1676 m
2017/06/26 13:50 ESSA 261350Z 27010KT 9999 VCSH FEW029 SCT055CB 13/11 Q0993 NOSIG
Nearby showers, Delvis molnigt
Nearby showers
Delvis molnigt
  Visa detaljer för Stockholm (Arlanda)
Avstånd från stationen: ONO 404kmESSB - Stockholm (Bromma)
Uppdaterad: 2017-06-26 15:50
 Vind från VSV
Vind: VSV 19 km/h
Temperatur: 15°C
Daggpunkt: 10°C
Luftfuktighet: 72%
Barometer: 994 hPa
Moln: Delvis molnigt
Sikt: 10 km
Molninformation: Delvis molnigt 1494 m
2017/06/26 13:50 ESSB 261350Z 25010KT 9999 SCT049 15/10 Q0994
Delvis molnigt
Delvis molnigt
  Visa detaljer för Stockholm (Bromma)
Avstånd från stationen: ONO 323kmESKN - Stockholm (Skavsta)
Uppdaterad: 2017-06-26 15:50
 Vind från V
Vind: V 31 km/h
Vindby: 52 km/h
Temperatur: 17°C
Daggpunkt: 9°C
Luftfuktighet: 59%
Barometer: 996 hPa
Summering: Skurar i närheten
Moln: Några få moln
Sikt: 10 km
Molninformation: Delvis molnigt 975 m
Några få moln 1554 m
2017/06/26 13:50 ESKN 261350Z 27017G28KT 9999 VCSH SCT032 FEW051CB 17/09 Q0996
Nearby showers, Några få moln
Nearby showers
Några få moln
  Visa detaljer för Stockholm (Skavsta)
Avstånd från stationen: SSO 238kmESMS - Malmö flygplats (Sturup)
Uppdaterad: 2017-06-26 15:50
 Vind från V
Vind: V 31 km/h
Temperatur: 17°C
Daggpunkt: 8°C
Luftfuktighet: 56%
Barometer: 1006 hPa
Summering: Klart
Sikt: mer än 10 km
2017/06/26 13:50 ESMS 261350Z 27017KT CAVOK 17/08 Q1006
Klart
Klart
  Visa detaljer för Malmö flygplats (Sturup)
Avstånd från stationen: O 382kmESSV - Visby flygplats
Uppdaterad: 2017-06-26 15:50
 Vind från VSV
Vind: VSV 26 km/h
Temperatur: 17°C
Daggpunkt: 11°C
Luftfuktighet: 68%
Barometer: 998 hPa
Summering: Klart
Sikt: mer än 10 km
2017/06/26 13:50 ESSV 261350Z 25014KT CAVOK 17/11 Q0998
Klart
Klart
  Visa detaljer för Visby flygplats
Avstånd från stationen: NNO 92kmESGT - Trollhättan
Uppdaterad: 2017-06-26 15:50
 Vind från VSV
Vind: VSV 30 km/h
Temperatur: 19°C
Daggpunkt: 5°C
Luftfuktighet: 40%
Barometer: 1000 hPa
Summering: Klart
Sikt: mer än 10 km
2017/06/26 13:50 ESGT 261350Z 25016KT CAVOK 19/05 Q1000
Klart
Klart
  Visa detaljer för Trollhättan
Avstånd från stationen: ONO 129kmESGJ - Jönköpings flygplats
Uppdaterad: 2017-06-26 15:50
 Vind från V
Vind: V 31 km/h
Vindby: 52 km/h
Temperatur: 17°C
Daggpunkt: 6°C
Luftfuktighet: 49%
Barometer: 1000 hPa
Moln: Delvis molnigt
Sikt: 10 km
Molninformation: Delvis molnigt 1494 m
2017/06/26 13:50 ESGJ 261350Z 26017G28KT 230V290 9999 SCT049 17/06 Q1000
Delvis molnigt
Delvis molnigt
  Visa detaljer för Jönköpings flygplats
Avstånd från stationen: NNO 229kmESOK - Karlstad
Uppdaterad: 2017-06-26 15:50
 Vind från V
Vind: V 17 km/h
Temperatur: 16°C
Daggpunkt: 7°C
Luftfuktighet: 55%
Barometer: 998 hPa
Moln: Övervägande molnigt
Sikt: 10 km
Molninformation: Några få moln 1433 m
Övervägande molnigt 1676 m
2017/06/26 13:50 ESOK 261350Z 26009KT 230V300 9999 FEW047CB BKN055 16/07 Q0998
Övervägande molnigt
Övervägande molnigt
  Visa detaljer för Karlstad
Avstånd från stationen: N 643kmESNZ - Östersund (Frösön)
Uppdaterad: 2017-06-26 15:50
 Vind från VNV
Vind: VNV 43 km/h
Temperatur: 10°C
Vindavkylning: 6°C
Daggpunkt: 7°C
Luftfuktighet: 82%
Barometer: 992 hPa
Moln: Genommulet
Sikt: 10 km
Molninformation: Genommulet 762 m
2017/06/26 13:50 ESNZ 261350Z 30023KT 9999 OVC025 10/07 Q0992
Genommulet
Genommulet
  Visa detaljer för Östersund (Frösön)
Avstånd från stationen: SSO 216kmEKCH - Köpenhamn (Kastrup)
Uppdaterad: 2017-06-26 15:50
 Vind från VNV
Vind: VNV 30 km/h
Temperatur: 18°C
Daggpunkt: 8°C
Luftfuktighet: 52%
Barometer: 1007 hPa
Moln: Övervägande molnigt
Sikt: 10 km
Molninformation: Några få moln 1280 m
Övervägande molnigt 1890 m
2017/06/26 13:50 EKCH 261350Z 30016KT 9999 FEW042 BKN062 18/08 Q1007 TEMPO 27020G30KT
Övervägande molnigt
Övervägande molnigt
  Visa detaljer för Köpenhamn (Kastrup)
Avstånd från stationen: SV 263kmEKBI - Billund Airport
Uppdaterad: 2017-06-26 15:50
 Vind från V
Vind: V 31 km/h
Vindby: 50 km/h
Temperatur: 15°C
Daggpunkt: 8°C
Luftfuktighet: 63%
Barometer: 1009 hPa
Moln: Övervägande molnigt
Sikt: 10 km
Molninformation: Övervägande molnigt 945 m
2017/06/26 13:50 EKBI 261350Z 28017G27KT 9999 BKN031 15/08 Q1009
Övervägande molnigt
Övervägande molnigt
  Visa detaljer för Billund Airport
Avstånd från stationen: N 302kmENGM - Oslo (Gardermoen)
Uppdaterad: 2017-06-26 15:50
 Vind från NNO
Vind: NNO 11 km/h
Temperatur: 14°C
Daggpunkt: 7°C
Luftfuktighet: 63%
Barometer: 999 hPa
Summering: Lätt regn, Showers
Moln: Övervägande molnigt
Sikt: 10 km
Molninformation: Några få moln 1189 m
Delvis molnigt 1494 m
Övervägande molnigt 1737 m
2017/06/26 13:50 ENGM 261350Z 02006KT 9999 -SHRA FEW039 SCT049 BKN057 14/07 Q0999 NOSIG
Lätt regn, Showers, Övervägande molnigt
Lätt regn
Showers
Övervägande molnigt
  Visa detaljer för Oslo (Gardermoen)
Avstånd från stationen: NO 540kmEFMA - Mariehamn / Åland
Uppdaterad: 2017-06-26 15:50
 Vind från SSV
Vind: SSV 13 km/h
Temperatur: 13°C
Daggpunkt: 10°C
Luftfuktighet: 82%
Barometer: 992 hPa
Summering: Lätt regn, Showers
Moln: Övervägande molnigt
Sikt: 10 km
Molninformation: Några få moln 549 m
Övervägande molnigt 2012 m
2017/06/26 13:50 EFMA 261350Z 21007KT 180V260 9999 -SHRA FEW018 BKN066 13/10 Q0992
Lätt regn, Showers, Övervägande molnigt
Lätt regn
Showers
Övervägande molnigt
  Visa detaljer för Mariehamn / Åland
Avstånd från stationen: S 558kmEDDT - Berlin (Tegel), Germany
Uppdaterad: 2017-06-26 15:50
 Vind från V
Vind: V 20 km/h
Temperatur: 20°C
Daggpunkt: 10°C
Luftfuktighet: 53%
Barometer: 1011 hPa
Moln: Övervägande molnigt
Sikt: 10 km
Molninformation: Delvis molnigt 1372 m
Övervägande molnigt 2377 m
2017/06/26 13:50 EDDT 261350Z 28011KT 9999 SCT045 BKN078 20/10 Q1011 TEMPO 28015G25KT
Övervägande molnigt
Övervägande molnigt
  Visa detaljer för Berlin (Tegel), Germany
Avstånd från stationen: SV 737kmEHAM - Amsterdam (Schiphol)
Uppdaterad: 2017-06-26 15:55
 Vind från NV
Vind: NV 13 km/h
Temperatur: 18°C
Daggpunkt: 10°C
Luftfuktighet: 60%
Barometer: 1014 hPa
Moln: Några få moln
Sikt: 10 km
Molninformation: Några få moln 1067 m
2017/06/26 13:55 EHAM 261355Z 32007KT 280V010 9999 FEW035 18/10 Q1014 NOSIG
Några få moln
Några få moln
  Visa detaljer för Amsterdam (Schiphol)
Avstånd från stationen: ONO 808kmEFHK - Helsingfors (Vantaa)
Uppdaterad: 2017-06-26 15:50
 Vind från SSV
Vind: SSV 28 km/h
Temperatur: 15°C
Daggpunkt: 9°C
Luftfuktighet: 68%
Barometer: 992 hPa
Summering: Skurar i närheten
Moln: Delvis molnigt
Sikt: 10 km
Molninformation: Delvis molnigt 640 m
Några få moln 1219 m
Delvis molnigt 1829 m
2017/06/26 13:50 EFHK 261350Z 21015KT 9999 VCSH SCT021 FEW040CB SCT060 15/09 Q0992 NOSIG
Nearby showers, Delvis molnigt
Nearby showers
Delvis molnigt
  Visa detaljer för Helsingfors (Vantaa)
Avstånd från stationen: SSV 537kmEDDW - Bremen
Uppdaterad: 2017-06-26 15:50
 Vind från NV
Vind: NV 19 km/h
Temperatur: 19°C
Daggpunkt: 9°C
Luftfuktighet: 52%
Barometer: 1013 hPa
Moln: Delvis molnigt
Sikt: 10 km
Molninformation: Delvis molnigt 1219 m
2017/06/26 13:50 EDDW 261350Z 32010KT 270V360 9999 SCT040 19/09 Q1013 NOSIG
Delvis molnigt
Delvis molnigt
  Visa detaljer för Bremen
Avstånd från stationen: SSV 861kmEDDF - Frankfurt am Main
Uppdaterad: 2017-06-26 15:50
 Vind från VNV
Vind: VNV 17 km/h
Temperatur: 27°C
Daggpunkt: 12°C
Luftfuktighet: 39%
Barometer: 1011 hPa
Summering: Klart
Sikt: mer än 10 km
2017/06/26 13:50 EDDF 261350Z 30009KT 220V350 CAVOK 27/12 Q1011 NOSIG
Klart
Klart
  Visa detaljer för Frankfurt am Main
Avstånd från stationen: SV 880kmEBBR - Bryssel international
Uppdaterad: 2017-06-26 15:50
 Vind från varierande
Vind: varierande 7 km/h
Temperatur: 23°C
Daggpunkt: 10°C
Luftfuktighet: 44%
Barometer: 1014 hPa
Moln: Några få moln
Sikt: 10 km
Molninformation: Några få moln 1494 m
2017/06/26 13:50 EBBR 261350Z VRB04KT 9999 FEW049 23/10 Q1014 NOSIG
Några få moln
Några få moln
  Visa detaljer för Bryssel international
Avstånd från stationen: SV 738kmEHAM - Amsterdam (Schiphol)
Uppdaterad: 2017-06-26 15:55
 Vind från NV
Vind: NV 13 km/h
Temperatur: 18°C
Daggpunkt: 10°C
Luftfuktighet: 60%
Barometer: 1014 hPa
Moln: Några få moln
Sikt: 10 km
Molninformation: Några få moln 1067 m
2017/06/26 13:55 EHAM 261355Z 32007KT 280V010 9999 FEW035 18/10 Q1014 NOSIG
Några få moln
Några få moln
  Visa detaljer för Amsterdam (Schiphol)
Avstånd från stationen: SV 1044kmEGLL - London (Heathrow)
Uppdaterad: 2017-06-26 15:50
 Vind från N
Vind: N 7 km/h
Temperatur: 24°C
Daggpunkt: 5°C
Luftfuktighet: 29%
Barometer: 1013 hPa
Moln: Klart
Sikt: 10 km
2017/06/26 13:50 EGLL 261350Z AUTO 01004KT 280V050 9999 NCD 24/05 Q1013 NOSIG
Klart
Klart
  Visa detaljer för London (Heathrow)
Avstånd från stationen: SV 1132kmLFPG - Paris (Charles de Gaulle)
Uppdaterad: 2017-06-26 15:30
 Vind från ONO
Vind: ONO 13 km/h
Vindby: 44 km/h
Temperatur: 26°C
Daggpunkt: 14°C
Luftfuktighet: 48%
Barometer: 1011 hPa
Summering: Klart
Sikt: mer än 10 km
2017/06/26 13:30 LFPG 261330Z 07007G24KT 350V130 CAVOK 26/14 Q1011 NOSIG
Klart
Klart
  Visa detaljer för Paris (Charles de Gaulle)
Avstånd från stationen: SSV 1142kmLSZH - Zürich Airport
Uppdaterad: 2017-06-26 15:50
 Vind från varierande
Vind: varierande 9 km/h
Temperatur: 30°C
Daggpunkt: 12°C
Luftfuktighet: 33%
Barometer: 1011 hPa
Moln: Delvis molnigt
Sikt: 10 km
Molninformation: Några få moln 1981 m
Delvis molnigt 9144 m
2017/06/26 13:50 LSZH 261350Z VRB05KT 9999 FEW065 SCT300 30/12 Q1011 NOSIG
Delvis molnigt
Delvis molnigt
  Visa detaljer för Zürich Airport
Avstånd från stationen: S 1749kmLIRF - Rome Airport (Fiumicino - Leonardo da Vinci)
Uppdaterad: 2017-06-26 15:50
 Vind från SSV
Vind: SSV 20 km/h
Temperatur: 30°C
Värmeindex: 33°C
Daggpunkt: 21°C
Luftfuktighet: 59%
Barometer: 1012 hPa
Summering: Klart
Sikt: mer än 10 km
2017/06/26 13:50 LIRF 261350Z 20011KT 170V240 CAVOK 30/21 Q1012 NOSIG
Klart
Klart
  Visa detaljer för Rome Airport (Fiumicino - Leonardo da Vinci)
Avstånd från stationen: SO 2679kmLTAI - Antalya
Uppdaterad: 2017-06-26 15:20
 Vind från SO
Vind: SO 15 km/h
Temperatur: 30°C
Värmeindex: 34°C
Daggpunkt: 23°C
Luftfuktighet: 66%
Barometer: 1007 hPa
Moln: Några få moln
Sikt: 10 km
Molninformation: Några få moln 914 m
2017/06/26 13:20 LTAI 261320Z 14008KT 100V180 9999 FEW030 30/23 Q1007 NOSIG
Några få moln
Några få moln
  Visa detaljer för Antalya
Avstånd från stationen: VSV 6074kmKJFK - New Your (JFK)
Uppdaterad: 2017-06-26 15:51
 Vind från SV
Vind: SV 17 km/h
Temperatur: 23°C
Daggpunkt: 12°C
Luftfuktighet: 50%
Barometer: 1017.6 hPa
Moln: Några få moln
Sikt: 16 km
Molninformation: Några få moln 1433 m
Några få moln 8534 m
2017/06/26 13:51 KJFK 261351Z 23009KT 10SM FEW047 FEW280 23/12 A3005
Några få moln
Några få moln
  Visa detaljer för New Your (JFK)
Avstånd från stationen: VSV 8848kmKLAX - Los Angeles International Airport
Uppdaterad: 2017-06-26 15:53
 Vind från OSO
Vind: OSO 7 km/h
Temperatur: 20°C
Daggpunkt: 16°C
Luftfuktighet: 78%
Barometer: 1012.2 hPa
Moln: Några få moln
Sikt: 16 km
Molninformation: Några få moln 305 m
Några få moln 2743 m
2017/06/26 13:53 KLAX 261353Z 11004KT 10SM FEW010 FEW090 20/16 A2989 RMK AO2 SLP120 FU FEW010 T02000161 $
Några få moln
Några få moln
  Visa detaljer för Los Angeles International Airport
Avstånd från stationen: SO 4968kmOMDB - Dubai International Airport
Uppdaterad: 2017-06-26 15:00
 Vind från NV
Vind: NV 19 km/h
Temperatur: 37°C
Värmeindex: 43°C
Daggpunkt: 23°C
Luftfuktighet: 44%
Barometer: 998 hPa
Summering: Klart
Sikt: mer än 10 km
2017/06/26 13:00 OMDB 261300Z 32010KT CAVOK 37/23 Q0998 NOSIG
Klart
Klart
  Visa detaljer för Dubai International Airport
Avstånd från stationen: OSO 8570kmRJTT - Tokyo International Airport
Uppdaterad: 2017-06-26 15:30
 Vind från O
Vind: O 11 km/h
Temperatur: 23°C
Daggpunkt: 21°C
Luftfuktighet: 89%
Barometer: 1009 hPa
Moln: Övervägande molnigt
Sikt: 10 km
Molninformation: Delvis molnigt 457 m
Övervägande molnigt 762 m
2017/06/26 13:30 RJTT 261330Z 10006KT 9999 SCT015 BKN025 23/21 Q1009 NOSIG RMK 3SC015 7SC025 A2981
Övervägande molnigt
Övervägande molnigt
  Visa detaljer för Tokyo International Airport
Avstånd från stationen: OSO 7125kmZBAA - Peking (Beijing Capital)
Uppdaterad: 2017-06-26 15:30
 Vind från S
Vind: S 7 km/h
Temperatur: 29°C
Värmeindex: 29°C
Daggpunkt: 17°C
Luftfuktighet: 48%
Barometer: 1005 hPa
Summering: Klart
Sikt: mer än 10 km
2017/06/26 13:30 ZBAA 261330Z 17002MPS 140V200 CAVOK 29/17 Q1005 NOSIG
Klart
Klart
  Visa detaljer för Peking (Beijing Capital)
VÄDER KURIOSA -  One Inch of RainOne inch of rain over one square mile equals to 17.4 million gallons of water.